createdAt,value
2023-01-17T00:00:30.624Z,4.10
2023-01-17T00:02:57.379Z,4.77
2023-01-17T00:05:42.511Z,5.77
2023-01-17T00:08:31.308Z,6.37
2023-01-17T00:10:58.305Z,4.60
2023-01-17T00:13:24.704Z,3.87
2023-01-17T00:15:51.175Z,4.33
2023-01-17T00:18:17.699Z,3.80
2023-01-17T00:21:02.917Z,4.97
2023-01-17T00:23:48.219Z,4.67
2023-01-17T00:26:18.761Z,5.67
2023-01-17T00:28:46.741Z,6.63
2023-01-17T00:31:13.995Z,7.87
2023-01-17T00:33:40.521Z,7.40
2023-01-17T00:36:07.306Z,7.70
2023-01-17T00:38:35.283Z,7.77
2023-01-17T00:41:06.120Z,7.97
2023-01-17T00:43:51.312Z,6.93
2023-01-17T00:46:36.903Z,9.10
2023-01-17T00:49:22.127Z,7.93
2023-01-17T00:52:06.903Z,8.27
2023-01-17T00:54:52.116Z,11.40
2023-01-17T00:57:37.156Z,8.00
2023-01-17T01:00:22.815Z,8.40
2023-01-17T01:03:08.115Z,7.17
2023-01-17T01:05:53.237Z,6.93
2023-01-17T01:08:42.735Z,5.00
2023-01-17T01:11:28.987Z,4.73
2023-01-17T01:14:14.344Z,5.23
2023-01-17T01:16:59.627Z,5.83
2023-01-17T01:19:44.892Z,5.37
2023-01-17T01:22:30.105Z,6.03
2023-01-17T01:25:15.402Z,6.00
2023-01-17T01:28:00.483Z,6.27
2023-01-17T01:30:45.451Z,7.07
2023-01-17T01:33:18.913Z,6.43
2023-01-17T01:35:48.276Z,7.30
2023-01-17T01:38:14.921Z,7.43
2023-01-17T01:40:42.215Z,6.67
2023-01-17T01:43:09.106Z,7.67
2023-01-17T01:45:35.812Z,8.13
2023-01-17T01:48:03.926Z,8.87
2023-01-17T01:50:31.282Z,7.27
2023-01-17T01:52:59.989Z,7.10
2023-01-17T01:55:32.047Z,8.73
2023-01-17T01:58:02.252Z,7.80
2023-01-17T02:00:30.518Z,6.43
2023-01-17T02:02:59.339Z,6.37
2023-01-17T02:05:27.184Z,5.87
2023-01-17T02:08:01.538Z,6.67
2023-01-17T02:10:28.402Z,7.13
2023-01-17T02:12:55.816Z,6.33
2023-01-17T02:15:29.273Z,4.70
2023-01-17T02:18:09.553Z,7.50
2023-01-17T02:20:48.243Z,4.77
2023-01-17T02:23:17.793Z,5.40
2023-01-17T02:26:13.600Z,4.77
2023-01-17T02:28:58.349Z,5.10
2023-01-17T02:31:27.605Z,5.03
2023-01-17T02:34:06.427Z,5.50
2023-01-17T02:36:35.629Z,5.23
2023-01-17T02:39:09.657Z,4.43
2023-01-17T02:41:40.774Z,4.83
2023-01-17T02:44:15.237Z,4.70
2023-01-17T02:46:55.518Z,4.97
2023-01-17T02:49:24.263Z,5.53
2023-01-17T02:51:56.875Z,7.27
2023-01-17T02:54:27.544Z,5.63
2023-01-17T02:56:53.961Z,5.90
2023-01-17T02:59:33.364Z,5.90
2023-01-17T03:02:09.141Z,7.70
2023-01-17T03:04:44.391Z,6.43
2023-01-17T03:07:17.470Z,7.23
2023-01-17T03:09:45.858Z,6.03
2023-01-17T03:12:12.740Z,5.40
2023-01-17T03:14:39.186Z,5.60
2023-01-17T03:17:05.651Z,5.43
2023-01-17T03:19:32.122Z,5.60
2023-01-17T03:21:58.526Z,4.33
2023-01-17T03:24:24.939Z,6.00
2023-01-17T03:26:51.351Z,4.40
2023-01-17T03:29:17.774Z,5.30
2023-01-17T03:31:44.172Z,4.83
2023-01-17T03:34:10.977Z,5.33
2023-01-17T03:36:37.554Z,4.30
2023-01-17T03:39:04.081Z,5.47
2023-01-17T03:41:30.530Z,5.93
2023-01-17T03:43:57.028Z,5.10
2023-01-17T03:46:24.487Z,5.00
2023-01-17T03:48:50.973Z,6.57
2023-01-17T03:51:17.878Z,6.03
2023-01-17T03:53:46.846Z,5.33
2023-01-17T03:56:13.679Z,5.60
2023-01-17T03:58:41.384Z,6.07
2023-01-17T04:01:08.039Z,4.77
2023-01-17T04:03:34.466Z,6.30
2023-01-17T04:06:00.939Z,5.73
2023-01-17T04:08:27.322Z,5.37
2023-01-17T04:10:53.820Z,6.67
2023-01-17T04:13:20.312Z,8.83
2023-01-17T04:15:48.415Z,9.40
2023-01-17T04:18:16.331Z,8.97
2023-01-17T04:20:42.772Z,11.43
2023-01-17T04:23:09.194Z,12.07
2023-01-17T04:25:35.601Z,12.20
2023-01-17T04:28:03.500Z,14.90
2023-01-17T04:30:30.432Z,14.47
2023-01-17T04:32:56.969Z,14.20
2023-01-17T04:35:23.798Z,13.90
2023-01-17T04:37:50.714Z,12.27
2023-01-17T04:40:17.215Z,11.43
2023-01-17T04:42:47.271Z,12.37
2023-01-17T04:45:14.371Z,13.40
2023-01-17T04:47:40.785Z,11.77
2023-01-17T04:50:07.756Z,13.53
2023-01-17T04:52:34.173Z,14.77
2023-01-17T04:55:00.652Z,13.93
2023-01-17T04:57:27.161Z,14.97
2023-01-17T04:59:53.595Z,15.67
2023-01-17T05:02:20.339Z,17.20
2023-01-17T05:04:46.907Z,21.20
2023-01-17T05:07:13.338Z,22.50
2023-01-17T05:09:39.781Z,18.03
2023-01-17T05:12:06.331Z,18.97
2023-01-17T05:14:34.275Z,21.73
2023-01-17T05:17:02.950Z,19.40
2023-01-17T05:19:29.380Z,20.47
2023-01-17T05:21:55.930Z,20.93
2023-01-17T05:24:22.344Z,22.23
2023-01-17T05:26:54.613Z,24.40
2023-01-17T05:29:21.634Z,20.60
2023-01-17T05:31:48.294Z,35.47
2023-01-17T05:34:14.695Z,21.57
2023-01-17T05:36:41.297Z,24.57
2023-01-17T05:39:07.785Z,23.47
2023-01-17T05:41:34.293Z,23.97
2023-01-17T05:44:00.820Z,24.07
2023-01-17T05:46:27.278Z,23.03
2023-01-17T05:48:53.860Z,25.90
2023-01-17T05:51:20.292Z,21.47
2023-01-17T05:53:46.703Z,21.80
2023-01-17T05:56:13.216Z,18.27
2023-01-17T05:58:40.048Z,21.90
2023-01-17T06:01:06.827Z,21.13
2023-01-17T06:03:33.259Z,18.97
2023-01-17T06:05:59.695Z,24.37
2023-01-17T06:08:26.209Z,20.50
2023-01-17T06:10:52.748Z,20.33
2023-01-17T06:13:21.976Z,18.67
2023-01-17T06:15:48.849Z,17.63
2023-01-17T06:18:16.505Z,15.40
2023-01-17T06:20:42.953Z,18.47
2023-01-17T06:23:13.720Z,20.97
2023-01-17T06:25:41.228Z,23.07
2023-01-17T06:28:07.787Z,19.73
2023-01-17T06:30:34.237Z,20.10
2023-01-17T06:33:00.763Z,17.30
2023-01-17T06:35:27.382Z,20.30
2023-01-17T06:37:55.348Z,20.20
2023-01-17T06:40:22.118Z,17.27
2023-01-17T06:42:48.840Z,16.17
2023-01-17T06:45:15.353Z,23.67
2023-01-17T06:47:42.174Z,25.10
2023-01-17T06:50:10.515Z,26.67
2023-01-17T06:52:37.021Z,22.07
2023-01-17T06:55:03.965Z,19.10
2023-01-17T06:57:30.371Z,19.17
2023-01-17T06:59:56.747Z,20.90
2023-01-17T07:02:23.372Z,20.67
2023-01-17T07:04:49.837Z,20.13
2023-01-17T07:07:16.751Z,23.20
2023-01-17T07:09:44.043Z,17.47
2023-01-17T07:12:12.535Z,22.87
2023-01-17T07:14:40.727Z,22.07
2023-01-17T07:17:07.155Z,23.23
2023-01-17T07:19:33.625Z,23.87
2023-01-17T07:22:00.114Z,27.53
2023-01-17T07:24:26.552Z,22.17
2023-01-17T07:26:53.074Z,19.20
2023-01-17T07:29:19.589Z,19.47
2023-01-17T07:31:48.167Z,20.87
2023-01-17T07:34:14.717Z,24.40
2023-01-17T07:36:41.113Z,24.60
2023-01-17T07:39:09.156Z,25.73
2023-01-17T07:41:41.179Z,26.07
2023-01-17T07:44:10.357Z,24.90
2023-01-17T07:46:36.847Z,27.60
2023-01-17T07:49:03.297Z,23.00
2023-01-17T07:51:29.964Z,21.00
2023-01-17T07:53:56.432Z,22.40
2023-01-17T07:56:22.952Z,31.90
2023-01-17T07:58:49.397Z,24.47
2023-01-17T08:01:16.104Z,21.13
2023-01-17T08:03:42.815Z,23.17
2023-01-17T08:06:23.906Z,19.53
2023-01-17T08:08:50.560Z,32.93
2023-01-17T08:11:17.164Z,30.97
2023-01-17T08:13:43.669Z,30.03
2023-01-17T08:16:13.470Z,26.67
2023-01-17T08:18:40.201Z,25.63
2023-01-17T08:21:14.186Z,23.40
2023-01-17T08:23:40.710Z,26.40
2023-01-17T08:26:07.173Z,32.13
2023-01-17T08:28:34.469Z,20.83
2023-01-17T08:31:10.308Z,26.23
2023-01-17T08:33:36.766Z,25.90
2023-01-17T08:36:03.258Z,42.83
2023-01-17T08:38:29.671Z,27.30
2023-01-17T08:40:56.182Z,26.13
2023-01-17T08:43:22.681Z,23.93
2023-01-17T08:45:50.195Z,27.50
2023-01-17T08:48:16.704Z,22.67
2023-01-17T08:50:43.158Z,23.90
2023-01-17T08:53:09.644Z,29.13
2023-01-17T08:55:39.487Z,30.93
2023-01-17T08:58:05.905Z,23.83
2023-01-17T09:00:32.614Z,22.90
2023-01-17T09:02:59.403Z,26.43
2023-01-17T09:05:25.827Z,24.90
2023-01-17T09:07:52.264Z,20.73
2023-01-17T09:10:18.856Z,25.53
2023-01-17T09:12:45.374Z,30.60
2023-01-17T09:15:14.611Z,17.53
2023-01-17T09:17:41.130Z,20.97
2023-01-17T09:20:08.098Z,25.33
2023-01-17T09:22:35.935Z,21.47
2023-01-17T09:25:02.423Z,23.47
2023-01-17T09:27:28.851Z,21.13
2023-01-17T09:29:55.439Z,24.80
2023-01-17T09:32:22.177Z,21.37
2023-01-17T09:34:48.593Z,23.30
2023-01-17T09:37:15.000Z,24.07
2023-01-17T09:39:41.466Z,19.77
2023-01-17T09:42:18.213Z,19.60
2023-01-17T09:44:51.589Z,19.87
2023-01-17T09:47:30.403Z,17.03
2023-01-17T09:49:59.517Z,18.03
2023-01-17T09:52:28.554Z,14.03
2023-01-17T09:54:55.013Z,19.33
2023-01-17T09:57:27.585Z,14.70
2023-01-17T10:00:03.191Z,16.40
2023-01-17T10:02:36.077Z,18.93
2023-01-17T10:05:02.608Z,15.90
2023-01-17T10:07:44.526Z,19.27
2023-01-17T10:10:20.204Z,18.20
2023-01-17T10:12:50.743Z,16.93
2023-01-17T10:15:20.501Z,20.33
2023-01-17T10:17:53.454Z,18.90
2023-01-17T10:20:43.051Z,11.80
2023-01-17T10:23:18.000Z,16.00
2023-01-17T10:25:52.416Z,18.43
2023-01-17T10:28:26.052Z,15.87
2023-01-17T10:30:54.525Z,14.33
2023-01-17T10:33:24.363Z,15.27
2023-01-17T10:35:56.879Z,12.20
2023-01-17T10:38:37.613Z,10.27
2023-01-17T10:41:33.554Z,10.47
2023-01-17T10:44:11.787Z,7.77
2023-01-17T10:46:41.341Z,9.60
2023-01-17T10:49:14.839Z,10.80
2023-01-17T10:51:59.989Z,11.67
2023-01-17T10:54:45.631Z,12.67
2023-01-17T10:57:14.832Z,11.50
2023-01-17T10:59:41.550Z,9.67
2023-01-17T11:02:23.796Z,8.90
2023-01-17T11:04:54.729Z,10.33
2023-01-17T11:07:28.675Z,9.00
2023-01-17T11:09:58.883Z,13.30
2023-01-17T11:12:28.000Z,11.17
2023-01-17T11:14:59.822Z,9.23
2023-01-17T11:17:27.543Z,9.47
2023-01-17T11:19:54.530Z,11.37
2023-01-17T11:22:21.091Z,11.97
2023-01-17T11:24:49.313Z,8.53
2023-01-17T11:27:26.471Z,7.93
2023-01-17T11:30:15.793Z,9.77
2023-01-17T11:32:55.577Z,10.60
2023-01-17T11:35:27.584Z,15.97
2023-01-17T11:37:58.417Z,12.60
2023-01-17T11:40:27.239Z,13.93
2023-01-17T11:43:01.659Z,15.80
2023-01-17T11:45:30.037Z,10.87
2023-01-17T11:48:12.753Z,10.60
2023-01-17T11:50:41.996Z,12.70
2023-01-17T11:53:34.541Z,15.53
2023-01-17T11:56:06.169Z,18.37
2023-01-17T11:58:33.935Z,15.10
2023-01-17T12:01:18.526Z,8.10
2023-01-17T12:03:50.992Z,9.40
2023-01-17T12:06:23.622Z,9.50
2023-01-17T12:09:03.585Z,12.07
2023-01-17T12:12:05.336Z,11.70
2023-01-17T12:14:41.005Z,10.47
2023-01-17T12:17:30.742Z,12.03
2023-01-17T12:20:01.492Z,10.90
2023-01-17T12:22:46.988Z,10.33
2023-01-17T12:25:19.552Z,11.87
2023-01-17T12:27:59.790Z,12.80
2023-01-17T12:30:35.522Z,8.90
2023-01-17T12:33:20.700Z,11.57
2023-01-17T12:35:52.906Z,7.27
2023-01-17T12:38:39.353Z,7.93
2023-01-17T12:41:26.510Z,9.77
2023-01-17T12:44:00.169Z,8.90
2023-01-17T12:46:43.160Z,6.77
2023-01-17T12:49:15.801Z,7.10
2023-01-17T12:51:44.358Z,6.20
2023-01-17T12:54:46.203Z,6.37
2023-01-17T12:57:17.588Z,7.30
2023-01-17T12:59:47.966Z,7.23
2023-01-17T13:02:25.003Z,6.17
2023-01-17T13:05:03.155Z,5.40
2023-01-17T13:07:38.980Z,3.83
2023-01-17T13:10:05.509Z,3.93
2023-01-17T13:12:33.170Z,4.80
2023-01-17T13:15:02.059Z,4.57
2023-01-17T13:17:28.573Z,4.67
2023-01-17T13:20:23.016Z,5.00
2023-01-17T13:22:51.107Z,5.70
2023-01-17T13:25:34.366Z,4.77
2023-01-17T13:28:04.072Z,4.03
2023-01-17T13:30:43.927Z,4.50
2023-01-17T13:33:16.424Z,4.30
2023-01-17T13:35:43.568Z,4.00
2023-01-17T13:38:28.588Z,3.87
2023-01-17T13:41:24.460Z,3.50
2023-01-17T13:44:09.377Z,3.20
2023-01-17T13:46:54.403Z,3.63
2023-01-17T13:49:24.046Z,4.03
2023-01-17T13:52:17.298Z,5.43
2023-01-17T13:54:45.893Z,3.80
2023-01-17T13:57:28.546Z,3.37
2023-01-17T13:59:57.531Z,3.47
2023-01-17T14:02:35.698Z,3.20
2023-01-17T14:05:26.010Z,3.43
2023-01-17T14:08:00.036Z,3.97
2023-01-17T14:10:35.040Z,3.30
2023-01-17T14:13:01.942Z,3.43
2023-01-17T14:15:29.933Z,2.87
2023-01-17T14:18:00.667Z,2.23
2023-01-17T14:20:27.547Z,5.10
2023-01-17T14:23:03.937Z,5.80
2023-01-17T14:25:40.468Z,2.87
2023-01-17T14:28:33.107Z,2.70
2023-01-17T14:31:00.892Z,2.60
2023-01-17T14:33:35.240Z,2.47
2023-01-17T14:36:04.382Z,2.70
2023-01-17T14:38:32.293Z,2.60
2023-01-17T14:41:01.737Z,3.17
2023-01-17T14:43:32.342Z,2.30
2023-01-17T14:46:01.091Z,2.47
2023-01-17T14:48:28.511Z,2.67
2023-01-17T14:50:57.351Z,3.07
2023-01-17T14:53:31.601Z,2.60
2023-01-17T14:56:02.375Z,3.50
2023-01-17T14:58:30.022Z,3.10
2023-01-17T15:00:59.106Z,3.50
2023-01-17T15:03:26.144Z,3.10
2023-01-17T15:05:54.005Z,3.27
2023-01-17T15:08:23.335Z,3.37
2023-01-17T15:10:58.765Z,3.40
2023-01-17T15:13:43.467Z,3.63
2023-01-17T15:16:22.274Z,2.90
2023-01-17T15:18:49.876Z,3.53
2023-01-17T15:21:19.590Z,3.20
2023-01-17T15:23:52.337Z,3.13
2023-01-17T15:26:22.670Z,2.80
2023-01-17T15:28:49.882Z,3.10
2023-01-17T15:31:19.980Z,3.37
2023-01-17T15:33:50.631Z,3.03
2023-01-17T15:36:17.056Z,3.17
2023-01-17T15:38:48.760Z,3.57
2023-01-17T15:41:16.247Z,3.50
2023-01-17T15:43:44.649Z,2.70
2023-01-17T15:46:21.593Z,3.03
2023-01-17T15:48:48.391Z,3.10
2023-01-17T15:51:37.080Z,3.40
2023-01-17T15:54:22.170Z,3.00
2023-01-17T15:56:48.693Z,3.20
2023-01-17T15:59:35.458Z,3.50
2023-01-17T16:02:01.998Z,3.30
2023-01-17T16:04:32.470Z,3.60
2023-01-17T16:07:19.592Z,3.30
2023-01-17T16:09:46.456Z,3.67
2023-01-17T16:12:12.944Z,3.60
2023-01-17T16:14:56.372Z,3.47
2023-01-17T16:17:26.045Z,3.93
2023-01-17T16:19:52.527Z,3.57
2023-01-17T16:22:19.020Z,3.53
2023-01-17T16:24:45.439Z,4.00
2023-01-17T16:27:11.899Z,3.97
2023-01-17T16:29:38.412Z,3.70
2023-01-17T16:32:08.663Z,4.40
2023-01-17T16:34:35.916Z,5.43
2023-01-17T16:37:03.973Z,4.50
2023-01-17T16:39:30.841Z,5.03
2023-01-17T16:42:03.861Z,3.87
2023-01-17T16:44:30.788Z,4.63
2023-01-17T16:47:01.291Z,4.90
2023-01-17T16:49:27.983Z,4.63
2023-01-17T16:51:54.438Z,4.63
2023-01-17T16:54:20.874Z,5.93
2023-01-17T16:56:47.335Z,5.80
2023-01-17T16:59:13.808Z,5.57
2023-01-17T17:01:40.483Z,7.20
2023-01-17T17:04:06.994Z,6.70
2023-01-17T17:06:34.258Z,6.10
2023-01-17T17:09:00.713Z,5.80
2023-01-17T17:11:27.323Z,7.43
2023-01-17T17:13:53.953Z,6.37
2023-01-17T17:16:22.264Z,5.37
2023-01-17T17:18:59.223Z,6.07
2023-01-17T17:21:26.051Z,7.43
2023-01-17T17:23:56.608Z,7.10
2023-01-17T17:26:24.173Z,8.40
2023-01-17T17:28:51.073Z,8.10
2023-01-17T17:31:17.631Z,9.30
2023-01-17T17:33:44.154Z,8.17
2023-01-17T17:36:10.646Z,10.07
2023-01-17T17:38:38.122Z,10.70
2023-01-17T17:41:05.410Z,10.60
2023-01-17T17:43:35.085Z,10.80
2023-01-17T17:46:01.626Z,12.10
2023-01-17T17:48:28.091Z,12.90
2023-01-17T17:50:59.768Z,10.20
2023-01-17T17:53:26.538Z,10.13
2023-01-17T17:55:53.663Z,11.17
2023-01-17T17:58:20.675Z,12.37
2023-01-17T18:00:49.214Z,11.57
2023-01-17T18:03:15.707Z,12.07
2023-01-17T18:05:42.592Z,10.87
2023-01-17T18:08:10.861Z,12.07
2023-01-17T18:10:37.990Z,12.50
2023-01-17T18:13:04.560Z,11.40
2023-01-17T18:15:31.295Z,10.80
2023-01-17T18:17:58.343Z,11.10
2023-01-17T18:20:24.800Z,11.53
2023-01-17T18:22:51.228Z,12.63
2023-01-17T18:25:17.710Z,12.47
2023-01-17T18:27:44.979Z,12.30
2023-01-17T18:30:12.491Z,15.07
2023-01-17T18:32:39.047Z,12.67
2023-01-17T18:35:05.732Z,12.30
2023-01-17T18:37:33.121Z,14.03
2023-01-17T18:39:59.571Z,12.97
2023-01-17T18:42:27.443Z,14.37
2023-01-17T18:44:53.854Z,14.30
2023-01-17T18:47:20.470Z,14.10
2023-01-17T18:49:46.856Z,15.27
2023-01-17T18:52:14.575Z,14.60
2023-01-17T18:54:41.072Z,13.50
2023-01-17T18:57:07.498Z,14.47
2023-01-17T18:59:34.023Z,15.30
2023-01-17T19:02:00.715Z,16.20
2023-01-17T19:04:28.575Z,17.00
2023-01-17T19:06:55.595Z,17.50
2023-01-17T19:09:22.286Z,17.33
2023-01-17T19:11:48.722Z,17.37
2023-01-17T19:14:15.738Z,15.83
2023-01-17T19:16:42.731Z,14.77
2023-01-17T19:19:10.972Z,15.17
2023-01-17T19:21:37.491Z,15.53
2023-01-17T19:24:04.144Z,16.80
2023-01-17T19:26:30.646Z,15.50
2023-01-17T19:28:58.623Z,15.37
2023-01-17T19:31:26.767Z,16.17
2023-01-17T19:33:56.750Z,16.73
2023-01-17T19:36:24.371Z,16.20
2023-01-17T19:39:03.515Z,14.43
2023-01-17T19:41:31.670Z,15.03
2023-01-17T19:43:59.325Z,15.80
2023-01-17T19:46:27.299Z,15.23
2023-01-17T19:48:54.971Z,15.30
2023-01-17T19:51:21.983Z,14.93
2023-01-17T19:53:48.500Z,15.07
2023-01-17T19:56:19.602Z,14.10
2023-01-17T19:58:46.766Z,15.40
2023-01-17T20:01:14.731Z,15.30
2023-01-17T20:03:43.701Z,14.93
2023-01-17T20:06:11.623Z,16.00
2023-01-17T20:08:38.237Z,15.87
2023-01-17T20:11:05.718Z,15.67
2023-01-17T20:13:32.417Z,14.20
2023-01-17T20:16:05.439Z,14.87
2023-01-17T20:18:32.496Z,14.17
2023-01-17T20:21:03.049Z,14.77
2023-01-17T20:23:29.554Z,14.80
2023-01-17T20:25:59.062Z,13.80
2023-01-17T20:28:26.711Z,14.23
2023-01-17T20:30:53.881Z,14.13
2023-01-17T20:33:20.445Z,13.77
2023-01-17T20:35:46.877Z,13.30
2023-01-17T20:38:13.313Z,13.63
2023-01-17T20:40:39.693Z,12.73
2023-01-17T20:43:06.234Z,12.97
2023-01-17T20:45:32.945Z,13.60
2023-01-17T20:47:59.657Z,13.27
2023-01-17T20:50:26.301Z,13.70
2023-01-17T20:52:52.738Z,13.13
2023-01-17T20:55:19.326Z,13.03
2023-01-17T20:57:45.746Z,13.30
2023-01-17T21:00:12.473Z,14.30
2023-01-17T21:02:38.917Z,12.47
2023-01-17T21:05:05.699Z,14.20
2023-01-17T21:07:32.116Z,12.43
2023-01-17T21:09:58.586Z,14.77
2023-01-17T21:12:25.028Z,13.70
2023-01-17T21:14:51.551Z,13.07
2023-01-17T21:17:19.165Z,13.90
2023-01-17T21:19:45.573Z,13.00
2023-01-17T21:22:14.749Z,13.53
2023-01-17T21:24:41.139Z,13.73
2023-01-17T21:27:07.629Z,14.23
2023-01-17T21:29:34.037Z,13.90
2023-01-17T21:32:00.527Z,13.47
2023-01-17T21:34:27.635Z,14.33
2023-01-17T21:36:54.031Z,13.37
2023-01-17T21:39:20.489Z,13.90
2023-01-17T21:41:47.938Z,13.50
2023-01-17T21:44:21.962Z,13.30
2023-01-17T21:46:48.848Z,12.37
2023-01-17T21:49:15.374Z,12.87
2023-01-17T21:51:54.912Z,12.97
2023-01-17T21:54:45.570Z,11.80
2023-01-17T21:57:45.083Z,14.40
2023-01-17T22:00:16.064Z,13.37
2023-01-17T22:02:43.265Z,12.03
2023-01-17T22:05:10.000Z,13.70
2023-01-17T22:07:37.239Z,13.30
2023-01-17T22:10:03.759Z,13.70
2023-01-17T22:12:30.226Z,12.43
2023-01-17T22:14:56.718Z,13.70
2023-01-17T22:17:23.174Z,13.87
2023-01-17T22:19:49.599Z,15.03
2023-01-17T22:22:16.017Z,14.43
2023-01-17T22:24:42.461Z,14.57
2023-01-17T22:27:09.894Z,15.03
2023-01-17T22:29:39.379Z,15.20
2023-01-17T22:32:05.837Z,15.80
2023-01-17T22:34:32.223Z,15.20
2023-01-17T22:36:58.703Z,15.20
2023-01-17T22:39:25.141Z,14.37
2023-01-17T22:41:51.616Z,15.03
2023-01-17T22:44:18.244Z,15.03
2023-01-17T22:46:45.143Z,15.27
2023-01-17T22:49:13.369Z,15.70
2023-01-17T22:51:39.884Z,13.90
2023-01-17T22:54:06.381Z,14.40
2023-01-17T22:56:33.433Z,13.30
2023-01-17T22:59:00.796Z,14.03
2023-01-17T23:01:31.268Z,13.60
2023-01-17T23:03:58.674Z,13.80
2023-01-17T23:06:30.404Z,14.17
2023-01-17T23:08:57.900Z,14.87
2023-01-17T23:11:39.677Z,14.77
2023-01-17T23:14:24.520Z,13.77
2023-01-17T23:17:13.472Z,14.17
2023-01-17T23:19:41.903Z,14.47
2023-01-17T23:22:15.730Z,13.83
2023-01-17T23:24:49.473Z,14.07
2023-01-17T23:27:36.514Z,13.87
2023-01-17T23:30:04.566Z,13.93
2023-01-17T23:32:31.461Z,13.13
2023-01-17T23:34:57.908Z,13.30
2023-01-17T23:37:48.445Z,13.80
2023-01-17T23:40:14.965Z,14.13
2023-01-17T23:43:00.138Z,13.53
2023-01-17T23:45:26.720Z,13.87
2023-01-17T23:47:53.245Z,14.47
2023-01-17T23:50:19.810Z,14.17
2023-01-17T23:52:46.431Z,14.10
2023-01-17T23:55:13.652Z,14.50
2023-01-17T23:57:40.152Z,14.77
